Details From CYKL - SCHEFFERVILLE
To CYWK - WABUSH
Flight Number -
Tags generated
Created
Modified
Stats Distance 114 nm / 211 km
Max Altitude 6,500 ft / 1,981 m
Waypoints 4
Social Downloads 2
Likes 0
Share VATSIM

Download

Looking for another format? Having issues loading an existing format? Contact us
Advertisement - Login to hide

Notes

Basic altitude profile: - Ascent Rate: 2500ft/min - Ascent Speed: 250kts - Cruise Altitude: 35000ft - Cruise Speed: 420kts - Descent Rate: 1500ft/min - Descent Speed: 250kts Options: - Use NATs: yes - Use PACOTS: yes - Use low airways: yes - Use high airways: yes

Route

CYKL KAVPO AR11 YWK CYWK

ID Type Via Altitude Latitude Longitude Leg Dist Tot Dist Heading (true) Name
O CYKL APT - 0 ft / 0 m 54.80472˚ -66.80472˚ - 0 nm - SCHEFFERVILLE
KAVPO FIX - 6,500 ft / 1,981 m 54.49861˚ -66.77250˚ 18 nm 18 nm 177° / 177° -
YWK VOR AR11 (AWY-LO) 5,600 ft / 1,707 m 52.96008˚ -66.85353˚ 92 nm 110 nm 182° / 182° WABUSH VOR-DME
O CYWK APT - 0 ft / 0 m 52.90743˚ -66.85488˚ 3 nm 114 nm 181° / 181° WABUSH

Altitude Profile

Advertisement - Login to hide

CYKL

Details ICAO CYKL (YKL)
Name SCHEFFERVILLE
Region Canada
Timezone America/Montreal (UTC-5.0)
Stats Elevation 1,709 ft / 521 m (AMSL)
Location 54.804722° -66.804722°
Runways 1
Magnetic Variation 20.963° W

METAR

CYKL 110805Z AUTO 01002KT 6SM -SN OVC034 M26/M28 A2938 RMK SLP012

Decode

TAF

TAF CYKL 110738Z 1108/1120 VRB03KT 6SM -SN OVC040 TEMPO 1108/1114 2SM -SN OVC020 BECMG 1112/1114 26010G20KT FM111400 26010G20KT P6SM BKN040 TEMPO 1114/1120 5SM -SN BKN020 RMK FCST BASED ON AUTO OBS. NXT FCST BY 111400Z

Decode

Departure Runways

ID Width Length Bearing (true) Bearing (mag) Surface Threshold Offset Overrun Length
18 150 ft / 46 m 4,992 ft / 1,522 m 149.05° 170.01° Asphalt 0 ft / 0 m 250 ft / 76 m
36 150 ft / 46 m 4,992 ft / 1,522 m 329.06° 350.02° Asphalt 0 ft / 0 m 250 ft / 76 m

CYWK

Details ICAO CYWK (YWK)
Name WABUSH
Region Canada
Timezone America/Goose_Bay (UTC-4.0)
Stats Elevation 1,808 ft / 551 m (AMSL)
Location 52.907429° -66.854885°
Runways 1
Magnetic Variation 19.921° W

METAR

CYWK 110800Z AUTO 27005KT 9SM FEW035 M23/M26 A2945 RMK SLP034

Decode

TAF

TAF CYWK 110738Z 1108/1120 28010KT P6SM BKN030 TEMPO 1108/1112 3SM -SN OVC020 FM111200 27010KT P6SM BKN030 TEMPO 1112/1120 SCT030 BECMG 1113/1115 26012G22KT RMK FCST BASED ON AUTO OBS. NXT FCST BY 111400Z

Decode

Destination Runways

ID Width Length Bearing (true) Bearing (mag) Surface Threshold Offset Overrun Length
18 150 ft / 46 m 5,995 ft / 1,827 m 157.18° 177.10° Asphalt 0 ft / 0 m 0 ft / 0 m
36 150 ft / 46 m 5,995 ft / 1,827 m 337.18° 357.10° Asphalt 0 ft / 0 m 0 ft / 0 m